createdAt,value
2023-01-19T00:01:43.820Z,2.80
2023-01-19T00:04:12.085Z,2.80
2023-01-19T00:06:40.447Z,3.27
2023-01-19T00:09:08.768Z,2.30
2023-01-19T00:11:37.471Z,2.70
2023-01-19T00:14:05.894Z,2.83
2023-01-19T00:16:35.429Z,2.07
2023-01-19T00:19:03.833Z,2.63
2023-01-19T00:21:32.211Z,2.10
2023-01-19T00:24:00.802Z,2.70
2023-01-19T00:26:29.152Z,2.37
2023-01-19T00:28:58.052Z,2.30
2023-01-19T00:31:26.490Z,2.33
2023-01-19T00:33:56.222Z,2.97
2023-01-19T00:36:24.745Z,2.73
2023-01-19T00:38:53.053Z,2.93
2023-01-19T00:41:42.083Z,2.40
2023-01-19T00:44:09.980Z,2.10
2023-01-19T00:46:38.611Z,2.67
2023-01-19T00:49:08.138Z,2.27
2023-01-19T00:51:36.781Z,2.10
2023-01-19T00:54:05.927Z,2.80
2023-01-19T00:56:34.352Z,1.90
2023-01-19T00:59:02.759Z,1.73
2023-01-19T01:01:46.057Z,1.90
2023-01-19T01:04:16.388Z,1.80
2023-01-19T01:06:45.222Z,1.37
2023-01-19T01:09:13.633Z,1.80
2023-01-19T01:11:42.831Z,1.97
2023-01-19T01:14:11.712Z,1.80
2023-01-19T01:16:40.587Z,1.90
2023-01-19T01:19:09.014Z,2.27
2023-01-19T01:21:39.021Z,1.97
2023-01-19T01:24:07.804Z,2.37
2023-01-19T01:26:36.188Z,2.70
2023-01-19T01:29:05.793Z,2.80
2023-01-19T01:31:34.466Z,3.10
2023-01-19T01:34:02.844Z,3.00
2023-01-19T01:36:33.402Z,3.00
2023-01-19T01:39:03.457Z,2.80
2023-01-19T01:41:32.570Z,2.87
2023-01-19T01:44:02.029Z,2.87
2023-01-19T01:46:32.309Z,2.50
2023-01-19T01:49:05.267Z,3.13
2023-01-19T01:51:37.907Z,2.77
2023-01-19T01:54:16.749Z,2.03
2023-01-19T01:56:47.668Z,2.33
2023-01-19T01:59:26.127Z,2.97
2023-01-19T02:02:15.699Z,2.40
2023-01-19T02:04:48.241Z,3.30
2023-01-19T02:07:39.222Z,3.03
2023-01-19T02:10:28.060Z,2.60
2023-01-19T02:13:15.595Z,2.97
2023-01-19T02:15:44.148Z,3.00
2023-01-19T02:18:12.741Z,2.67
2023-01-19T02:20:43.506Z,2.70
2023-01-19T02:23:18.459Z,2.33
2023-01-19T02:25:49.225Z,3.10
2023-01-19T02:28:18.136Z,3.10
2023-01-19T02:30:46.516Z,2.93
2023-01-19T02:33:14.808Z,2.60
2023-01-19T02:35:44.163Z,3.40
2023-01-19T02:38:13.041Z,3.07
2023-01-19T02:40:44.166Z,2.63
2023-01-19T02:43:13.963Z,2.83
2023-01-19T02:45:43.405Z,3.17
2023-01-19T02:48:12.028Z,3.40
2023-01-19T02:50:49.498Z,3.47
2023-01-19T02:53:39.594Z,3.50
2023-01-19T02:56:23.357Z,4.03
2023-01-19T02:59:01.202Z,3.67
2023-01-19T03:01:41.510Z,3.57
2023-01-19T03:04:19.211Z,3.43
2023-01-19T03:06:51.356Z,3.53
2023-01-19T03:09:29.732Z,3.57
2023-01-19T03:12:09.929Z,3.07
2023-01-19T03:14:46.233Z,3.83
2023-01-19T03:17:18.345Z,2.83
2023-01-19T03:19:49.628Z,3.40
2023-01-19T03:22:23.423Z,3.23
2023-01-19T03:24:54.614Z,3.30
2023-01-19T03:27:28.107Z,3.37
2023-01-19T03:30:00.984Z,3.47
2023-01-19T03:32:33.560Z,2.33
2023-01-19T03:35:04.601Z,3.33
2023-01-19T03:37:34.809Z,3.40
2023-01-19T03:40:03.435Z,3.50
2023-01-19T03:42:32.023Z,3.07
2023-01-19T03:45:02.313Z,3.97
2023-01-19T03:47:30.669Z,3.50
2023-01-19T03:50:03.247Z,3.27
2023-01-19T03:52:33.544Z,4.13
2023-01-19T03:55:02.514Z,3.40
2023-01-19T03:57:31.077Z,4.23
2023-01-19T03:59:59.362Z,3.93
2023-01-19T04:02:29.284Z,3.10
2023-01-19T04:04:57.680Z,3.73
2023-01-19T04:07:26.083Z,2.90
2023-01-19T04:09:54.522Z,3.73
2023-01-19T04:12:23.260Z,3.57
2023-01-19T04:14:51.628Z,4.10
2023-01-19T04:17:20.157Z,4.70
2023-01-19T04:19:49.811Z,3.50
2023-01-19T04:22:18.108Z,3.43
2023-01-19T04:24:46.515Z,3.60
2023-01-19T04:27:16.451Z,3.10
2023-01-19T04:29:44.837Z,3.30
2023-01-19T04:32:14.771Z,3.67
2023-01-19T04:34:43.556Z,2.63
2023-01-19T04:37:13.377Z,4.10
2023-01-19T04:39:41.803Z,3.20
2023-01-19T04:42:10.486Z,3.00
2023-01-19T04:44:39.090Z,3.47
2023-01-19T04:47:07.441Z,3.73
2023-01-19T04:49:37.617Z,3.93
2023-01-19T04:52:06.328Z,3.67
2023-01-19T04:54:35.872Z,3.50
2023-01-19T04:57:04.272Z,3.20
2023-01-19T04:59:32.664Z,3.70
2023-01-19T05:02:01.098Z,3.70
2023-01-19T05:04:29.640Z,3.80
2023-01-19T05:06:58.338Z,3.97
2023-01-19T05:09:27.158Z,3.03
2023-01-19T05:11:56.783Z,3.93
2023-01-19T05:14:25.158Z,4.23
2023-01-19T05:16:53.495Z,3.60
2023-01-19T05:19:22.159Z,3.07
2023-01-19T05:21:50.898Z,3.20
2023-01-19T05:24:20.265Z,3.80
2023-01-19T05:26:48.647Z,3.33
2023-01-19T05:29:18.434Z,3.23
2023-01-19T05:31:47.111Z,3.93
2023-01-19T05:34:16.339Z,3.07
2023-01-19T05:36:44.767Z,3.07
2023-01-19T05:39:13.290Z,4.00
2023-01-19T05:41:42.059Z,3.20
2023-01-19T05:44:11.348Z,3.40
2023-01-19T05:46:41.494Z,3.67
2023-01-19T05:49:09.997Z,3.57
2023-01-19T05:51:38.986Z,3.30
2023-01-19T05:54:07.832Z,3.50
2023-01-19T05:56:36.348Z,3.63
2023-01-19T05:59:04.743Z,3.53
2023-01-19T06:01:33.282Z,3.00
2023-01-19T06:04:02.817Z,3.27
2023-01-19T06:06:31.227Z,3.17
2023-01-19T06:08:59.563Z,3.27
2023-01-19T06:11:28.565Z,4.10
2023-01-19T06:13:57.003Z,3.90
2023-01-19T06:16:25.441Z,3.70
2023-01-19T06:18:53.965Z,3.70
2023-01-19T06:21:24.463Z,3.30
2023-01-19T06:23:53.109Z,2.70
2023-01-19T06:26:21.708Z,2.70
2023-01-19T06:28:52.183Z,3.13
2023-01-19T06:31:20.735Z,2.93
2023-01-19T06:33:49.993Z,3.20
2023-01-19T06:36:18.673Z,3.10
2023-01-19T06:38:48.402Z,3.37
2023-01-19T06:41:16.846Z,2.87
2023-01-19T06:43:45.223Z,3.53
2023-01-19T06:46:13.855Z,2.80
2023-01-19T06:48:42.199Z,3.10
2023-01-19T06:51:11.036Z,3.07
2023-01-19T06:53:39.867Z,3.50
2023-01-19T06:56:10.895Z,2.83
2023-01-19T06:58:40.498Z,3.10
2023-01-19T07:01:09.736Z,3.10
2023-01-19T07:03:38.631Z,3.13
2023-01-19T07:06:07.713Z,4.20
2023-01-19T07:08:36.880Z,3.10
2023-01-19T07:11:25.799Z,3.23
2023-01-19T07:13:57.071Z,3.63
2023-01-19T07:16:25.575Z,2.97
2023-01-19T07:18:54.109Z,2.97
2023-01-19T07:21:23.304Z,2.70
2023-01-19T07:23:51.922Z,2.73
2023-01-19T07:26:21.573Z,2.53
2023-01-19T07:28:50.835Z,2.33
2023-01-19T07:31:21.153Z,2.40
2023-01-19T07:33:50.146Z,2.97
2023-01-19T07:36:18.678Z,2.83
2023-01-19T07:38:47.121Z,3.50
2023-01-19T07:41:15.531Z,2.50
2023-01-19T07:43:43.795Z,2.50
2023-01-19T07:46:12.419Z,2.40
2023-01-19T07:48:44.307Z,2.97
2023-01-19T07:51:17.967Z,3.17
2023-01-19T07:53:46.349Z,2.97
2023-01-19T07:56:14.782Z,3.00
2023-01-19T07:58:43.453Z,4.03
2023-01-19T08:01:13.826Z,3.50
2023-01-19T08:03:43.686Z,2.67
2023-01-19T08:06:21.136Z,2.60
2023-01-19T08:08:49.684Z,3.70
2023-01-19T08:11:18.376Z,6.73
2023-01-19T08:13:46.911Z,7.43
2023-01-19T08:16:15.293Z,8.20
2023-01-19T08:18:44.993Z,8.07
2023-01-19T08:21:13.275Z,8.00
2023-01-19T08:23:41.776Z,8.03
2023-01-19T08:26:20.690Z,8.10
2023-01-19T08:28:49.030Z,7.93
2023-01-19T08:31:21.058Z,8.30
2023-01-19T08:33:52.527Z,9.00
2023-01-19T08:36:21.511Z,9.50
2023-01-19T08:38:50.187Z,8.77
2023-01-19T08:41:18.894Z,9.37
2023-01-19T08:43:47.743Z,8.33
2023-01-19T08:46:18.612Z,8.17
2023-01-19T08:48:48.167Z,9.20
2023-01-19T08:51:18.470Z,8.47
2023-01-19T08:53:47.084Z,8.17
2023-01-19T08:56:15.317Z,7.80
2023-01-19T08:58:44.568Z,8.10
2023-01-19T09:01:16.844Z,9.23
2023-01-19T09:03:45.415Z,8.77
2023-01-19T09:06:17.045Z,8.93
2023-01-19T09:08:47.194Z,9.23
2023-01-19T09:11:17.234Z,9.47
2023-01-19T09:13:45.490Z,9.97
2023-01-19T09:16:15.225Z,9.17
2023-01-19T09:18:45.186Z,9.70
2023-01-19T09:21:15.178Z,9.57
2023-01-19T09:23:43.745Z,10.67
2023-01-19T09:26:13.571Z,11.03
2023-01-19T09:28:41.846Z,11.40
2023-01-19T09:31:11.013Z,10.97
2023-01-19T09:33:39.820Z,9.97
2023-01-19T09:36:08.876Z,9.40
2023-01-19T09:38:38.438Z,8.80
2023-01-19T09:41:21.256Z,8.83
2023-01-19T09:43:54.218Z,10.10
2023-01-19T09:46:28.521Z,9.33
2023-01-19T09:48:58.361Z,8.10
2023-01-19T09:51:28.461Z,7.87
2023-01-19T09:54:02.467Z,7.30
2023-01-19T09:56:33.247Z,7.53
2023-01-19T09:59:02.573Z,8.03
2023-01-19T10:01:46.499Z,8.20
2023-01-19T10:04:33.179Z,8.53
2023-01-19T10:07:11.099Z,7.93
2023-01-19T10:09:48.968Z,8.67
2023-01-19T10:12:29.386Z,9.07
2023-01-19T10:15:05.334Z,8.90
2023-01-19T10:17:42.488Z,9.40
2023-01-19T10:20:19.146Z,7.57
2023-01-19T10:22:50.274Z,6.03
2023-01-19T10:25:23.764Z,5.60
2023-01-19T10:27:53.608Z,6.57
2023-01-19T10:30:25.704Z,8.33
2023-01-19T10:32:54.425Z,6.33
2023-01-19T10:35:25.091Z,5.13
2023-01-19T10:37:57.643Z,5.53
2023-01-19T10:40:34.520Z,5.93
2023-01-19T10:43:37.086Z,6.07
2023-01-19T10:46:08.124Z,6.40
2023-01-19T10:48:42.178Z,7.00
2023-01-19T10:51:12.201Z,7.07
2023-01-19T10:53:41.873Z,4.10
2023-01-19T10:56:16.656Z,2.93
2023-01-19T10:58:46.475Z,2.33
2023-01-19T11:01:18.387Z,3.47
2023-01-19T11:03:47.204Z,2.60
2023-01-19T11:06:32.544Z,2.03
2023-01-19T11:09:17.163Z,2.30
2023-01-19T11:11:48.906Z,2.20
2023-01-19T11:14:21.948Z,2.70
2023-01-19T11:16:53.084Z,2.60
2023-01-19T11:19:26.905Z,2.00
2023-01-19T11:22:08.756Z,2.50
2023-01-19T11:24:39.546Z,2.40
2023-01-19T11:27:08.280Z,2.30
2023-01-19T11:29:39.096Z,2.23
2023-01-19T11:32:22.267Z,3.10
2023-01-19T11:34:51.147Z,2.93
2023-01-19T11:37:29.719Z,3.17
2023-01-19T11:39:59.765Z,2.83
2023-01-19T11:42:31.617Z,3.17
2023-01-19T11:45:07.275Z,3.97
2023-01-19T11:47:42.338Z,3.70
2023-01-19T11:50:21.666Z,3.20
2023-01-19T11:52:56.449Z,3.30
2023-01-19T11:55:38.871Z,4.47
2023-01-19T11:58:07.558Z,2.77
2023-01-19T12:00:41.035Z,3.10
2023-01-19T12:03:17.954Z,2.63
2023-01-19T12:05:49.086Z,3.03
2023-01-19T12:08:21.552Z,2.37
2023-01-19T12:10:52.292Z,2.27
2023-01-19T12:13:23.426Z,2.50
2023-01-19T12:15:58.536Z,2.50
2023-01-19T12:18:31.057Z,2.13
2023-01-19T12:21:01.866Z,2.50
2023-01-19T12:23:49.210Z,2.50
2023-01-19T12:26:29.364Z,2.53
2023-01-19T12:29:02.017Z,2.30
2023-01-19T12:31:31.854Z,2.60
2023-01-19T12:34:31.363Z,2.40
2023-01-19T12:37:03.997Z,2.33
2023-01-19T12:39:35.370Z,2.27
2023-01-19T12:42:12.949Z,2.60
2023-01-19T12:44:42.747Z,2.03
2023-01-19T12:47:24.702Z,2.03
2023-01-19T12:49:56.509Z,2.70
2023-01-19T12:52:36.226Z,2.13
2023-01-19T12:55:20.974Z,2.57
2023-01-19T12:57:57.569Z,2.30
2023-01-19T13:00:35.132Z,2.50
2023-01-19T13:03:26.778Z,2.10
2023-01-19T13:05:56.364Z,1.67
2023-01-19T13:08:26.830Z,2.00
2023-01-19T13:11:25.825Z,2.00
2023-01-19T13:14:36.692Z,2.07
2023-01-19T13:17:22.457Z,2.27
2023-01-19T13:20:28.641Z,2.30
2023-01-19T13:23:19.934Z,1.83
2023-01-19T13:25:55.677Z,2.30
2023-01-19T13:28:32.023Z,2.03
2023-01-19T13:31:03.884Z,2.70
2023-01-19T13:33:41.073Z,3.10
2023-01-19T13:36:23.762Z,4.13
2023-01-19T13:38:53.294Z,2.50
2023-01-19T13:41:24.971Z,1.90
2023-01-19T13:43:59.853Z,2.20
2023-01-19T13:46:29.493Z,2.23
2023-01-19T13:49:01.154Z,2.17
2023-01-19T13:51:30.911Z,2.50
2023-01-19T13:54:02.331Z,2.23
2023-01-19T13:56:31.300Z,2.20
2023-01-19T13:59:09.861Z,3.37
2023-01-19T14:01:40.111Z,2.43
2023-01-19T14:04:24.968Z,2.00
2023-01-19T14:06:55.942Z,3.47
2023-01-19T14:09:24.632Z,3.03
2023-01-19T14:12:20.128Z,3.70
2023-01-19T14:14:48.501Z,2.40
2023-01-19T14:17:34.277Z,2.20
2023-01-19T14:20:02.735Z,2.10
2023-01-19T14:22:44.743Z,2.47
2023-01-19T14:25:32.961Z,2.10
2023-01-19T14:28:39.455Z,2.40
2023-01-19T14:31:21.968Z,2.20
2023-01-19T14:33:53.237Z,2.33
2023-01-19T14:36:36.181Z,1.93
2023-01-19T14:39:06.844Z,2.20
2023-01-19T14:41:40.179Z,2.03
2023-01-19T14:44:12.142Z,1.90
2023-01-19T14:46:47.254Z,1.33
2023-01-19T14:49:21.729Z,2.13
2023-01-19T14:51:51.303Z,2.03
2023-01-19T14:54:29.160Z,2.23
2023-01-19T14:56:57.566Z,2.30
2023-01-19T14:59:26.126Z,2.20
2023-01-19T15:01:54.625Z,1.47
2023-01-19T15:04:23.263Z,1.97
2023-01-19T15:06:51.508Z,1.40
2023-01-19T15:09:21.165Z,1.73
2023-01-19T15:11:51.333Z,1.47
2023-01-19T15:14:21.175Z,1.50
2023-01-19T15:16:50.070Z,1.50
2023-01-19T15:19:19.330Z,1.57
2023-01-19T15:21:48.283Z,1.30
2023-01-19T15:24:18.006Z,1.40
2023-01-19T15:26:48.082Z,1.73
2023-01-19T15:29:21.454Z,2.07
2023-01-19T15:31:50.423Z,2.13
2023-01-19T15:34:18.800Z,1.83
2023-01-19T15:36:47.365Z,4.27
2023-01-19T15:39:15.733Z,2.03
2023-01-19T15:41:44.038Z,2.00
2023-01-19T15:44:13.716Z,2.07
2023-01-19T15:46:42.155Z,2.27
2023-01-19T15:49:10.527Z,2.93
2023-01-19T15:51:39.193Z,2.10
2023-01-19T15:54:07.674Z,2.47
2023-01-19T15:56:36.097Z,3.10
2023-01-19T15:59:05.052Z,2.90
2023-01-19T16:01:35.182Z,2.77
2023-01-19T16:04:05.687Z,1.83
2023-01-19T16:06:34.792Z,2.30
2023-01-19T16:09:03.942Z,2.07
2023-01-19T16:11:34.434Z,2.37
2023-01-19T16:14:03.042Z,2.30
2023-01-19T16:16:31.543Z,1.90
2023-01-19T16:19:01.384Z,2.90
2023-01-19T16:21:30.130Z,2.73
2023-01-19T16:23:58.427Z,3.27
2023-01-19T16:26:32.532Z,3.73
2023-01-19T16:29:02.358Z,2.40
2023-01-19T16:31:31.105Z,3.23
2023-01-19T16:34:00.779Z,2.67
2023-01-19T16:36:31.266Z,2.87
2023-01-19T16:39:00.741Z,2.70
2023-01-19T16:41:29.441Z,2.83
2023-01-19T16:43:59.078Z,2.30
2023-01-19T16:46:29.238Z,2.57
2023-01-19T16:49:03.117Z,3.50
2023-01-19T16:51:31.916Z,3.10
2023-01-19T16:54:00.371Z,4.03
2023-01-19T16:56:28.910Z,7.63
2023-01-19T16:58:58.083Z,10.90
2023-01-19T17:01:27.881Z,11.63
2023-01-19T17:03:56.785Z,11.20
2023-01-19T17:06:28.170Z,9.70
2023-01-19T17:08:56.543Z,9.07
2023-01-19T17:11:30.337Z,11.17
2023-01-19T17:14:00.790Z,12.77
2023-01-19T17:16:30.917Z,11.33
2023-01-19T17:19:00.676Z,11.03
2023-01-19T17:21:31.081Z,9.03
2023-01-19T17:24:00.077Z,8.97
2023-01-19T17:26:31.226Z,10.87
2023-01-19T17:29:00.721Z,13.67
2023-01-19T17:31:30.359Z,11.23
2023-01-19T17:33:59.979Z,11.07
2023-01-19T17:36:30.784Z,10.57
2023-01-19T17:39:00.648Z,2.07
2023-01-19T17:41:33.476Z,1.80
2023-01-19T17:44:03.633Z,1.10
2023-01-19T17:46:32.702Z,1.97
2023-01-19T17:49:03.182Z,1.67
2023-01-19T17:51:33.704Z,2.40
2023-01-19T17:54:02.884Z,4.47
2023-01-19T17:56:36.619Z,5.33
2023-01-19T17:59:06.572Z,6.20
2023-01-19T18:01:37.862Z,3.90
2023-01-19T18:04:06.868Z,3.37
2023-01-19T18:06:36.699Z,3.20
2023-01-19T18:09:06.906Z,3.33
2023-01-19T18:11:36.028Z,2.00
2023-01-19T18:14:05.431Z,2.50
2023-01-19T18:16:33.939Z,3.03
2023-01-19T18:19:02.292Z,2.37
2023-01-19T18:21:30.911Z,2.43
2023-01-19T18:24:05.466Z,2.60
2023-01-19T18:26:35.089Z,2.80
2023-01-19T18:29:03.531Z,2.70
2023-01-19T18:31:31.965Z,2.60
2023-01-19T18:34:01.475Z,2.33
2023-01-19T18:36:32.077Z,1.90
2023-01-19T18:39:00.578Z,2.13
2023-01-19T18:41:30.788Z,3.73
2023-01-19T18:43:59.763Z,3.33
2023-01-19T18:46:28.473Z,2.93
2023-01-19T18:48:57.014Z,3.43
2023-01-19T18:51:25.622Z,3.07
2023-01-19T18:53:53.931Z,11.97
2023-01-19T18:56:22.467Z,38.47
2023-01-19T18:58:53.240Z,7.17
2023-01-19T19:01:24.801Z,4.47
2023-01-19T19:03:53.533Z,3.60
2023-01-19T19:06:22.409Z,3.67
2023-01-19T19:08:51.357Z,4.40
2023-01-19T19:11:20.559Z,5.93
2023-01-19T19:13:55.073Z,4.93
2023-01-19T19:16:23.537Z,3.87
2023-01-19T19:18:52.181Z,3.00
2023-01-19T19:21:21.824Z,4.73
2023-01-19T19:23:53.708Z,6.27
2023-01-19T19:26:22.882Z,6.33
2023-01-19T19:28:51.571Z,3.40
2023-01-19T19:31:25.721Z,4.80
2023-01-19T19:33:54.436Z,3.73
2023-01-19T19:36:23.775Z,3.73
2023-01-19T19:38:52.626Z,4.37
2023-01-19T19:41:22.677Z,6.47
2023-01-19T19:43:51.488Z,9.10
2023-01-19T19:46:24.297Z,6.30
2023-01-19T19:48:53.234Z,5.07
2023-01-19T19:51:23.860Z,4.87
2023-01-19T19:53:53.178Z,8.83
2023-01-19T19:56:23.516Z,8.43
2023-01-19T19:58:52.582Z,7.80
2023-01-19T20:01:26.864Z,9.13
2023-01-19T20:03:56.194Z,9.77
2023-01-19T20:06:25.785Z,10.67
2023-01-19T20:08:55.877Z,12.80
2023-01-19T20:11:26.982Z,12.83
2023-01-19T20:13:55.819Z,18.47
2023-01-19T20:16:25.800Z,17.07
2023-01-19T20:18:55.233Z,22.30
2023-01-19T20:21:25.455Z,22.07
2023-01-19T20:23:54.676Z,23.13
2023-01-19T20:26:25.136Z,26.33
2023-01-19T20:28:53.690Z,28.77
2023-01-19T20:31:26.975Z,30.73
2023-01-19T20:33:56.985Z,30.97
2023-01-19T20:36:25.374Z,30.73
2023-01-19T20:38:54.853Z,30.20
2023-01-19T20:41:25.207Z,30.73
2023-01-19T20:43:54.123Z,30.60
2023-01-19T20:46:22.518Z,34.20
2023-01-19T20:48:54.667Z,34.73
2023-01-19T20:51:24.245Z,32.60
2023-01-19T20:53:52.879Z,32.70
2023-01-19T20:56:21.317Z,31.57
2023-01-19T20:58:49.841Z,35.70
2023-01-19T21:01:20.158Z,34.57
2023-01-19T21:03:48.870Z,36.33
2023-01-19T21:06:18.927Z,34.93
2023-01-19T21:08:49.620Z,39.10
2023-01-19T21:11:21.227Z,37.77
2023-01-19T21:13:50.565Z,42.90
2023-01-19T21:16:19.177Z,45.50
2023-01-19T21:18:47.682Z,41.53
2023-01-19T21:21:29.436Z,40.63
2023-01-19T21:23:59.847Z,40.57
2023-01-19T21:26:29.770Z,39.30
2023-01-19T21:28:58.698Z,37.27
2023-01-19T21:31:28.356Z,40.57
2023-01-19T21:33:57.210Z,37.70
2023-01-19T21:36:27.664Z,37.03
2023-01-19T21:39:00.381Z,36.17
2023-01-19T21:41:30.158Z,37.50
2023-01-19T21:44:00.009Z,36.40
2023-01-19T21:46:29.452Z,34.03
2023-01-19T21:48:58.582Z,34.07
2023-01-19T21:51:28.963Z,31.93
2023-01-19T21:53:59.756Z,33.17
2023-01-19T21:56:28.637Z,33.40
2023-01-19T21:58:57.827Z,32.27
2023-01-19T22:01:26.552Z,34.10
2023-01-19T22:03:55.875Z,30.93
2023-01-19T22:06:24.836Z,29.87
2023-01-19T22:08:55.181Z,30.50
2023-01-19T22:11:24.929Z,31.47
2023-01-19T22:13:53.660Z,31.03
2023-01-19T22:16:24.118Z,29.93
2023-01-19T22:18:54.480Z,18.00
2023-01-19T22:21:24.765Z,9.67
2023-01-19T22:23:56.167Z,4.23
2023-01-19T22:26:24.856Z,2.93
2023-01-19T22:28:55.883Z,2.70
2023-01-19T22:31:25.304Z,2.90
2023-01-19T22:33:54.193Z,3.50
2023-01-19T22:36:24.083Z,3.03
2023-01-19T22:38:54.845Z,2.70
2023-01-19T22:41:25.107Z,2.87
2023-01-19T22:43:56.082Z,3.27
2023-01-19T22:46:26.231Z,2.70
2023-01-19T22:48:54.860Z,2.67
2023-01-19T22:51:24.726Z,2.93
2023-01-19T22:53:54.628Z,2.80
2023-01-19T22:56:24.407Z,2.80
2023-01-19T22:58:53.710Z,2.27
2023-01-19T23:01:24.095Z,2.27
2023-01-19T23:03:52.797Z,2.40
2023-01-19T23:06:22.588Z,2.37
2023-01-19T23:08:51.277Z,3.10
2023-01-19T23:11:22.303Z,2.73
2023-01-19T23:13:51.209Z,2.47
2023-01-19T23:16:20.322Z,2.70
2023-01-19T23:18:49.336Z,2.93
2023-01-19T23:21:19.813Z,3.00
2023-01-19T23:23:48.186Z,3.20
2023-01-19T23:26:18.372Z,2.80
2023-01-19T23:28:48.976Z,2.53
2023-01-19T23:31:22.192Z,2.80
2023-01-19T23:33:51.540Z,2.73
2023-01-19T23:36:20.947Z,3.23
2023-01-19T23:38:50.762Z,2.77
2023-01-19T23:41:19.345Z,2.83
2023-01-19T23:43:49.183Z,2.80
2023-01-19T23:46:19.111Z,3.53
2023-01-19T23:48:48.026Z,4.13
2023-01-19T23:51:17.781Z,2.57
2023-01-19T23:53:46.304Z,2.63
2023-01-19T23:56:17.432Z,3.37
2023-01-19T23:58:47.027Z,2.77
